sensor_id;sensor_type;location;lat;lon;timestamp;P1;durP1;ratioP1;P2;durP2;ratioP2
45887;SDS011;31595;51.418;7.572;2023-06-24T00:02:03;6.85;;;6.03;;
45887;SDS011;31595;51.418;7.572;2023-06-24T00:04:29;9.82;;;6.68;;
45887;SDS011;31595;51.418;7.572;2023-06-24T00:06:58;9.23;;;6.82;;
45887;SDS011;31595;51.418;7.572;2023-06-24T00:09:25;7.97;;;6.00;;
45887;SDS011;31595;51.418;7.572;2023-06-24T00:11:52;8.30;;;7.15;;
45887;SDS011;31595;51.418;7.572;2023-06-24T00:14:19;7.88;;;5.85;;
45887;SDS011;31595;51.418;7.572;2023-06-24T00:16:46;6.95;;;6.25;;
45887;SDS011;31595;51.418;7.572;2023-06-24T00:19:14;8.98;;;6.82;;
45887;SDS011;31595;51.418;7.572;2023-06-24T00:21:44;9.13;;;6.60;;
45887;SDS011;31595;51.418;7.572;2023-06-24T00:24:45;7.32;;;6.57;;
45887;SDS011;31595;51.418;7.572;2023-06-24T00:27:12;9.48;;;6.55;;
45887;SDS011;31595;51.418;7.572;2023-06-24T00:29:39;7.47;;;5.95;;
45887;SDS011;31595;51.418;7.572;2023-06-24T00:32:08;6.10;;;5.50;;
45887;SDS011;31595;51.418;7.572;2023-06-24T00:34:35;7.38;;;6.25;;
45887;SDS011;31595;51.418;7.572;2023-06-24T00:37:02;7.32;;;6.45;;
45887;SDS011;31595;51.418;7.572;2023-06-24T00:39:29;8.32;;;6.45;;
45887;SDS011;31595;51.418;7.572;2023-06-24T00:41:58;9.85;;;5.80;;
45887;SDS011;31595;51.418;7.572;2023-06-24T00:44:25;7.97;;;5.43;;
45887;SDS011;31595;51.418;7.572;2023-06-24T00:46:52;8.68;;;6.50;;
45887;SDS011;31595;51.418;7.572;2023-06-24T00:49:19;7.25;;;6.15;;
45887;SDS011;31595;51.418;7.572;2023-06-24T00:51:45;8.43;;;6.78;;
45887;SDS011;31595;51.418;7.572;2023-06-24T00:54:15;8.07;;;6.82;;
45887;SDS011;31595;51.418;7.572;2023-06-24T00:56:42;8.98;;;6.60;;
45887;SDS011;31595;51.418;7.572;2023-06-24T00:59:11;7.75;;;6.80;;
45887;SDS011;31595;51.418;7.572;2023-06-24T01:01:39;7.40;;;5.95;;
45887;SDS011;31595;51.418;7.572;2023-06-24T01:04:06;7.65;;;6.63;;
45887;SDS011;31595;51.418;7.572;2023-06-24T01:06:34;8.50;;;7.22;;
45887;SDS011;31595;51.418;7.572;2023-06-24T01:09:01;9.10;;;6.68;;
45887;SDS011;31595;51.418;7.572;2023-06-24T01:11:30;9.55;;;6.35;;
45887;SDS011;31595;51.418;7.572;2023-06-24T01:13:57;9.07;;;5.90;;
45887;SDS011;31595;51.418;7.572;2023-06-24T01:16:26;9.13;;;6.93;;
45887;SDS011;31595;51.418;7.572;2023-06-24T01:18:57;9.25;;;6.82;;
45887;SDS011;31595;51.418;7.572;2023-06-24T01:21:31;8.73;;;6.60;;
45887;SDS011;31595;51.418;7.572;2023-06-24T01:24:13;10.57;;;6.22;;
45887;SDS011;31595;51.418;7.572;2023-06-24T01:29:34;12.73;;;6.85;;
45887;SDS011;31595;51.418;7.572;2023-06-24T01:32:05;11.57;;;6.60;;
45887;SDS011;31595;51.418;7.572;2023-06-24T01:34:34;10.98;;;6.95;;
45887;SDS011;31595;51.418;7.572;2023-06-24T01:37:05;9.02;;;6.63;;
45887;SDS011;31595;51.418;7.572;2023-06-24T01:39:36;11.23;;;7.13;;
45887;SDS011;31595;51.418;7.572;2023-06-24T01:42:06;9.73;;;6.32;;
45887;SDS011;31595;51.418;7.572;2023-06-24T01:44:34;9.20;;;7.22;;
45887;SDS011;31595;51.418;7.572;2023-06-24T01:47:01;9.85;;;7.35;;
45887;SDS011;31595;51.418;7.572;2023-06-24T01:49:31;8.63;;;7.47;;
45887;SDS011;31595;51.418;7.572;2023-06-24T01:51:58;9.25;;;7.15;;
45887;SDS011;31595;51.418;7.572;2023-06-24T01:54:27;11.52;;;6.38;;
45887;SDS011;31595;51.418;7.572;2023-06-24T01:56:55;10.75;;;6.55;;
45887;SDS011;31595;51.418;7.572;2023-06-24T01:59:24;13.00;;;7.10;;
45887;SDS011;31595;51.418;7.572;2023-06-24T02:01:52;10.65;;;6.00;;
45887;SDS011;31595;51.418;7.572;2023-06-24T02:04:19;9.32;;;6.45;;
45887;SDS011;31595;51.418;7.572;2023-06-24T02:06:48;12.38;;;6.88;;
45887;SDS011;31595;51.418;7.572;2023-06-24T02:09:15;12.10;;;8.65;;
45887;SDS011;31595;51.418;7.572;2023-06-24T02:11:44;11.37;;;7.73;;
45887;SDS011;31595;51.418;7.572;2023-06-24T02:14:11;9.93;;;7.55;;
45887;SDS011;31595;51.418;7.572;2023-06-24T02:16:38;9.65;;;6.60;;
45887;SDS011;31595;51.418;7.572;2023-06-24T02:19:08;8.35;;;7.15;;
45887;SDS011;31595;51.418;7.572;2023-06-24T02:21:35;11.05;;;8.30;;
45887;SDS011;31595;51.418;7.572;2023-06-24T02:24:04;11.68;;;8.15;;
45887;SDS011;31595;51.418;7.572;2023-06-24T02:26:31;10.90;;;7.60;;
45887;SDS011;31595;51.418;7.572;2023-06-24T02:28:58;10.07;;;7.75;;
45887;SDS011;31595;51.418;7.572;2023-06-24T02:31:25;8.85;;;7.22;;
45887;SDS011;31595;51.418;7.572;2023-06-24T02:33:58;12.38;;;6.78;;
45887;SDS011;31595;51.418;7.572;2023-06-24T02:36:25;12.95;;;7.45;;
45887;SDS011;31595;51.418;7.572;2023-06-24T02:38:51;11.98;;;7.38;;
45887;SDS011;31595;51.418;7.572;2023-06-24T02:41:20;11.65;;;7.38;;
45887;SDS011;31595;51.418;7.572;2023-06-24T02:43:46;15.63;;;7.45;;
45887;SDS011;31595;51.418;7.572;2023-06-24T02:46:13;14.07;;;8.07;;
45887;SDS011;31595;51.418;7.572;2023-06-24T02:48:41;16.35;;;7.53;;
45887;SDS011;31595;51.418;7.572;2023-06-24T02:51:09;11.27;;;7.43;;
45887;SDS011;31595;51.418;7.572;2023-06-24T02:53:36;11.57;;;8.07;;
45887;SDS011;31595;51.418;7.572;2023-06-24T02:56:04;12.18;;;8.75;;
45887;SDS011;31595;51.418;7.572;2023-06-24T02:58:33;13.50;;;8.50;;
45887;SDS011;31595;51.418;7.572;2023-06-24T03:01:00;15.23;;;8.25;;
45887;SDS011;31595;51.418;7.572;2023-06-24T03:03:28;12.07;;;7.63;;
45887;SDS011;31595;51.418;7.572;2023-06-24T03:05:55;14.07;;;7.97;;
45887;SDS011;31595;51.418;7.572;2023-06-24T03:08:23;13.02;;;8.05;;
45887;SDS011;31595;51.418;7.572;2023-06-24T03:10:50;11.40;;;7.63;;
45887;SDS011;31595;51.418;7.572;2023-06-24T03:13:17;14.68;;;8.80;;
45887;SDS011;31595;51.418;7.572;2023-06-24T03:15:45;10.40;;;6.90;;
45887;SDS011;31595;51.418;7.572;2023-06-24T03:18:12;12.93;;;8.25;;
45887;SDS011;31595;51.418;7.572;2023-06-24T03:20:39;14.10;;;9.35;;
45887;SDS011;31595;51.418;7.572;2023-06-24T03:23:05;12.63;;;7.88;;
45887;SDS011;31595;51.418;7.572;2023-06-24T03:25:32;14.70;;;8.27;;
45887;SDS011;31595;51.418;7.572;2023-06-24T03:27:59;13.18;;;7.00;;
45887;SDS011;31595;51.418;7.572;2023-06-24T03:30:26;13.40;;;7.97;;
45887;SDS011;31595;51.418;7.572;2023-06-24T03:32:55;10.25;;;8.18;;
45887;SDS011;31595;51.418;7.572;2023-06-24T03:35:23;12.73;;;7.85;;
45887;SDS011;31595;51.418;7.572;2023-06-24T03:37:50;17.88;;;7.90;;
45887;SDS011;31595;51.418;7.572;2023-06-24T03:40:17;16.00;;;7.93;;
45887;SDS011;31595;51.418;7.572;2023-06-24T03:42:43;13.32;;;7.38;;
45887;SDS011;31595;51.418;7.572;2023-06-24T03:45:10;13.52;;;8.45;;
45887;SDS011;31595;51.418;7.572;2023-06-24T03:47:37;10.15;;;6.97;;
45887;SDS011;31595;51.418;7.572;2023-06-24T03:50:06;9.85;;;7.57;;
45887;SDS011;31595;51.418;7.572;2023-06-24T03:52:33;12.63;;;8.10;;
45887;SDS011;31595;51.418;7.572;2023-06-24T03:54:59;14.48;;;7.95;;
45887;SDS011;31595;51.418;7.572;2023-06-24T03:57:29;16.92;;;9.25;;
45887;SDS011;31595;51.418;7.572;2023-06-24T03:59:56;11.52;;;8.98;;
45887;SDS011;31595;51.418;7.572;2023-06-24T04:02:23;10.27;;;7.35;;
45887;SDS011;31595;51.418;7.572;2023-06-24T04:04:49;14.07;;;9.07;;
45887;SDS011;31595;51.418;7.572;2023-06-24T04:07:18;11.73;;;7.63;;
45887;SDS011;31595;51.418;7.572;2023-06-24T04:09:53;10.27;;;7.43;;
45887;SDS011;31595;51.418;7.572;2023-06-24T04:12:20;13.18;;;8.27;;
45887;SDS011;31595;51.418;7.572;2023-06-24T04:14:47;16.23;;;8.30;;
45887;SDS011;31595;51.418;7.572;2023-06-24T04:17:14;11.65;;;8.50;;
45887;SDS011;31595;51.418;7.572;2023-06-24T04:19:40;14.40;;;8.57;;
45887;SDS011;31595;51.418;7.572;2023-06-24T04:22:07;13.35;;;8.63;;
45887;SDS011;31595;51.418;7.572;2023-06-24T04:24:35;13.20;;;8.57;;
45887;SDS011;31595;51.418;7.572;2023-06-24T04:27:05;14.07;;;7.50;;
45887;SDS011;31595;51.418;7.572;2023-06-24T04:29:32;12.38;;;7.57;;
45887;SDS011;31595;51.418;7.572;2023-06-24T04:31:58;11.25;;;7.47;;
45887;SDS011;31595;51.418;7.572;2023-06-24T04:34:25;17.70;;;8.70;;
45887;SDS011;31595;51.418;7.572;2023-06-24T04:36:52;13.45;;;7.63;;
45887;SDS011;31595;51.418;7.572;2023-06-24T04:39:19;11.43;;;8.43;;
45887;SDS011;31595;51.418;7.572;2023-06-24T04:41:47;14.45;;;9.30;;
45887;SDS011;31595;51.418;7.572;2023-06-24T04:44:14;11.75;;;8.45;;
45887;SDS011;31595;51.418;7.572;2023-06-24T04:46:40;13.48;;;8.50;;
45887;SDS011;31595;51.418;7.572;2023-06-24T04:49:07;12.80;;;8.98;;
45887;SDS011;31595;51.418;7.572;2023-06-24T04:51:34;9.65;;;8.32;;
45887;SDS011;31595;51.418;7.572;2023-06-24T04:54:02;10.98;;;9.10;;
45887;SDS011;31595;51.418;7.572;2023-06-24T04:56:29;11.85;;;8.63;;
45887;SDS011;31595;51.418;7.572;2023-06-24T04:58:57;9.90;;;7.18;;
45887;SDS011;31595;51.418;7.572;2023-06-24T05:01:24;13.02;;;8.45;;
45887;SDS011;31595;51.418;7.572;2023-06-24T05:03:50;9.73;;;7.15;;
45887;SDS011;31595;51.418;7.572;2023-06-24T05:06:17;11.70;;;8.57;;
45887;SDS011;31595;51.418;7.572;2023-06-24T05:08:44;11.02;;;8.02;;
45887;SDS011;31595;51.418;7.572;2023-06-24T05:11:11;11.50;;;8.40;;
45887;SDS011;31595;51.418;7.572;2023-06-24T05:13:38;11.77;;;8.60;;
45887;SDS011;31595;51.418;7.572;2023-06-24T05:16:06;13.15;;;8.38;;
45887;SDS011;31595;51.418;7.572;2023-06-24T05:18:33;11.77;;;8.73;;
45887;SDS011;31595;51.418;7.572;2023-06-24T05:20:59;12.50;;;8.65;;
45887;SDS011;31595;51.418;7.572;2023-06-24T05:23:26;12.75;;;9.63;;
45887;SDS011;31595;51.418;7.572;2023-06-24T05:25:53;9.43;;;8.43;;
45887;SDS011;31595;51.418;7.572;2023-06-24T05:28:20;10.02;;;8.00;;
45887;SDS011;31595;51.418;7.572;2023-06-24T05:30:46;10.27;;;7.90;;
45887;SDS011;31595;51.418;7.572;2023-06-24T05:33:14;10.88;;;8.23;;
45887;SDS011;31595;51.418;7.572;2023-06-24T05:35:42;11.65;;;8.82;;
45887;SDS011;31595;51.418;7.572;2023-06-24T05:38:09;8.43;;;7.47;;
45887;SDS011;31595;51.418;7.572;2023-06-24T05:40:36;9.93;;;8.52;;
45887;SDS011;31595;51.418;7.572;2023-06-24T05:43:02;10.57;;;8.20;;
45887;SDS011;31595;51.418;7.572;2023-06-24T05:45:29;14.57;;;8.45;;
45887;SDS011;31595;51.418;7.572;2023-06-24T05:47:56;11.30;;;8.10;;
45887;SDS011;31595;51.418;7.572;2023-06-24T05:50:24;29.67;;;8.18;;
45887;SDS011;31595;51.418;7.572;2023-06-24T05:52:51;13.13;;;8.15;;
45887;SDS011;31595;51.418;7.572;2023-06-24T05:55:18;10.75;;;7.43;;
45887;SDS011;31595;51.418;7.572;2023-06-24T05:57:44;10.55;;;8.00;;
45887;SDS011;31595;51.418;7.572;2023-06-24T06:00:11;9.73;;;8.27;;
45887;SDS011;31595;51.418;7.572;2023-06-24T06:02:38;9.48;;;7.20;;
45887;SDS011;31595;51.418;7.572;2023-06-24T06:05:05;9.18;;;7.30;;
45887;SDS011;31595;51.418;7.572;2023-06-24T06:07:33;8.50;;;7.60;;
45887;SDS011;31595;51.418;7.572;2023-06-24T06:10:03;10.70;;;7.55;;
45887;SDS011;31595;51.418;7.572;2023-06-24T06:12:30;9.07;;;8.18;;
45887;SDS011;31595;51.418;7.572;2023-06-24T06:14:57;11.93;;;8.55;;
45887;SDS011;31595;51.418;7.572;2023-06-24T06:17:23;9.77;;;7.97;;
45887;SDS011;31595;51.418;7.572;2023-06-24T06:19:50;12.38;;;8.32;;
45887;SDS011;31595;51.418;7.572;2023-06-24T06:22:17;9.02;;;7.68;;
45887;SDS011;31595;51.418;7.572;2023-06-24T06:24:45;9.02;;;8.10;;
45887;SDS011;31595;51.418;7.572;2023-06-24T06:27:12;8.48;;;7.55;;
45887;SDS011;31595;51.418;7.572;2023-06-24T06:29:39;9.88;;;7.47;;
45887;SDS011;31595;51.418;7.572;2023-06-24T06:32:06;11.48;;;7.13;;
45887;SDS011;31595;51.418;7.572;2023-06-24T06:34:33;10.25;;;7.45;;
45887;SDS011;31595;51.418;7.572;2023-06-24T06:37:00;7.38;;;6.57;;
45887;SDS011;31595;51.418;7.572;2023-06-24T06:39:27;8.57;;;6.60;;
45887;SDS011;31595;51.418;7.572;2023-06-24T06:41:55;7.55;;;6.35;;
45887;SDS011;31595;51.418;7.572;2023-06-24T06:44:22;8.43;;;7.07;;
45887;SDS011;31595;51.418;7.572;2023-06-24T06:46:49;9.00;;;6.88;;
45887;SDS011;31595;51.418;7.572;2023-06-24T06:49:15;7.68;;;6.88;;
45887;SDS011;31595;51.418;7.572;2023-06-24T06:51:42;7.25;;;6.53;;
45887;SDS011;31595;51.418;7.572;2023-06-24T06:54:09;7.97;;;6.97;;
45887;SDS011;31595;51.418;7.572;2023-06-24T06:56:36;8.63;;;6.45;;
45887;SDS011;31595;51.418;7.572;2023-06-24T06:59:04;7.68;;;5.97;;
45887;SDS011;31595;51.418;7.572;2023-06-24T07:01:30;8.02;;;5.80;;
45887;SDS011;31595;51.418;7.572;2023-06-24T07:03:57;8.38;;;6.60;;
45887;SDS011;31595;51.418;7.572;2023-06-24T07:06:24;7.70;;;6.15;;
45887;SDS011;31595;51.418;7.572;2023-06-24T07:08:51;8.80;;;6.43;;
45887;SDS011;31595;51.418;7.572;2023-06-24T07:11:17;7.82;;;6.18;;
45887;SDS011;31595;51.418;7.572;2023-06-24T07:13:44;6.13;;;5.30;;
45887;SDS011;31595;51.418;7.572;2023-06-24T07:16:12;7.35;;;6.28;;
45887;SDS011;31595;51.418;7.572;2023-06-24T07:18:39;6.50;;;5.78;;
45887;SDS011;31595;51.418;7.572;2023-06-24T07:21:06;7.40;;;5.78;;
45887;SDS011;31595;51.418;7.572;2023-06-24T07:23:33;7.18;;;6.25;;
45887;SDS011;31595;51.418;7.572;2023-06-24T07:25:59;7.50;;;6.40;;
45887;SDS011;31595;51.418;7.572;2023-06-24T07:28:26;7.75;;;5.85;;
45887;SDS011;31595;51.418;7.572;2023-06-24T07:30:53;10.05;;;5.85;;
45887;SDS011;31595;51.418;7.572;2023-06-24T07:33:21;5.93;;;5.35;;
45887;SDS011;31595;51.418;7.572;2023-06-24T07:35:48;7.93;;;5.40;;
45887;SDS011;31595;51.418;7.572;2023-06-24T07:38:15;7.63;;;5.63;;
45887;SDS011;31595;51.418;7.572;2023-06-24T07:40:41;5.60;;;4.97;;
45887;SDS011;31595;51.418;7.572;2023-06-24T07:43:08;6.78;;;5.03;;
45887;SDS011;31595;51.418;7.572;2023-06-24T07:45:35;8.82;;;5.55;;
45887;SDS011;31595;51.418;7.572;2023-06-24T07:48:02;7.57;;;5.70;;
45887;SDS011;31595;51.418;7.572;2023-06-24T07:50:31;7.07;;;4.72;;
45887;SDS011;31595;51.418;7.572;2023-06-24T07:52:58;6.15;;;4.88;;
45887;SDS011;31595;51.418;7.572;2023-06-24T07:55:25;6.28;;;5.53;;
45887;SDS011;31595;51.418;7.572;2023-06-24T07:57:52;6.53;;;5.03;;
45887;SDS011;31595;51.418;7.572;2023-06-24T08:00:18;6.45;;;5.22;;
45887;SDS011;31595;51.418;7.572;2023-06-24T08:02:45;6.05;;;4.55;;
45887;SDS011;31595;51.418;7.572;2023-06-24T08:05:12;9.35;;;4.32;;
45887;SDS011;31595;51.418;7.572;2023-06-24T08:07:40;8.00;;;4.55;;
45887;SDS011;31595;51.418;7.572;2023-06-24T08:10:07;6.53;;;4.30;;
45887;SDS011;31595;51.418;7.572;2023-06-24T08:12:34;5.07;;;4.15;;
45887;SDS011;31595;51.418;7.572;2023-06-24T08:15:01;5.45;;;4.63;;
45887;SDS011;31595;51.418;7.572;2023-06-24T08:17:27;5.65;;;4.60;;
45887;SDS011;31595;51.418;7.572;2023-06-24T08:19:54;4.80;;;4.30;;
45887;SDS011;31595;51.418;7.572;2023-06-24T08:22:21;7.40;;;4.32;;
45887;SDS011;31595;51.418;7.572;2023-06-24T08:24:49;6.25;;;4.82;;
45887;SDS011;31595;51.418;7.572;2023-06-24T08:27:16;5.28;;;4.57;;
45887;SDS011;31595;51.418;7.572;2023-06-24T08:29:43;5.85;;;4.38;;
45887;SDS011;31595;51.418;7.572;2023-06-24T08:32:09;5.15;;;4.50;;
45887;SDS011;31595;51.418;7.572;2023-06-24T08:34:36;4.47;;;3.97;;
45887;SDS011;31595;51.418;7.572;2023-06-24T08:37:03;4.68;;;4.25;;
45887;SDS011;31595;51.418;7.572;2023-06-24T08:39:30;6.88;;;4.70;;
45887;SDS011;31595;51.418;7.572;2023-06-24T08:41:58;4.80;;;4.25;;
45887;SDS011;31595;51.418;7.572;2023-06-24T08:44:25;5.00;;;4.47;;
45887;SDS011;31595;51.418;7.572;2023-06-24T08:46:52;5.50;;;5.00;;
45887;SDS011;31595;51.418;7.572;2023-06-24T08:49:22;5.00;;;4.43;;
45887;SDS011;31595;51.418;7.572;2023-06-24T08:51:54;6.85;;;5.45;;
45887;SDS011;31595;51.418;7.572;2023-06-24T08:56:47;5.97;;;4.50;;
45887;SDS011;31595;51.418;7.572;2023-06-24T08:59:15;5.75;;;4.63;;
45887;SDS011;31595;51.418;7.572;2023-06-24T09:01:44;5.97;;;4.60;;
45887;SDS011;31595;51.418;7.572;2023-06-24T09:04:11;5.20;;;4.70;;
45887;SDS011;31595;51.418;7.572;2023-06-24T09:06:38;6.03;;;4.65;;
45887;SDS011;31595;51.418;7.572;2023-06-24T09:09:05;4.97;;;4.57;;
45887;SDS011;31595;51.418;7.572;2023-06-24T09:11:45;5.57;;;4.90;;
45887;SDS011;31595;51.418;7.572;2023-06-24T09:14:18;5.15;;;4.53;;
45887;SDS011;31595;51.418;7.572;2023-06-24T09:16:50;5.38;;;4.63;;
45887;SDS011;31595;51.418;7.572;2023-06-24T09:19:19;6.03;;;4.80;;
45887;SDS011;31595;51.418;7.572;2023-06-24T09:21:46;5.20;;;4.43;;
45887;SDS011;31595;51.418;7.572;2023-06-24T09:24:13;5.90;;;4.70;;
45887;SDS011;31595;51.418;7.572;2023-06-24T09:26:41;7.43;;;4.32;;
45887;SDS011;31595;51.418;7.572;2023-06-24T09:29:08;5.15;;;4.65;;
45887;SDS011;31595;51.418;7.572;2023-06-24T09:31:37;4.85;;;4.18;;
45887;SDS011;31595;51.418;7.572;2023-06-24T09:34:12;6.20;;;5.60;;
45887;SDS011;31595;51.418;7.572;2023-06-24T09:36:41;6.50;;;5.00;;
45887;SDS011;31595;51.418;7.572;2023-06-24T09:39:08;5.35;;;4.85;;
45887;SDS011;31595;51.418;7.572;2023-06-24T09:41:35;7.50;;;4.82;;
45887;SDS011;31595;51.418;7.572;2023-06-24T09:44:02;6.32;;;5.55;;
45887;SDS011;31595;51.418;7.572;2023-06-24T09:46:29;6.03;;;5.30;;
45887;SDS011;31595;51.418;7.572;2023-06-24T09:48:59;7.35;;;5.85;;
45887;SDS011;31595;51.418;7.572;2023-06-24T09:51:26;5.90;;;5.22;;
45887;SDS011;31595;51.418;7.572;2023-06-24T09:53:53;6.95;;;5.32;;
45887;SDS011;31595;51.418;7.572;2023-06-24T09:56:22;6.50;;;5.80;;
45887;SDS011;31595;51.418;7.572;2023-06-24T09:58:49;6.57;;;5.63;;
45887;SDS011;31595;51.418;7.572;2023-06-24T10:01:16;5.75;;;5.00;;
45887;SDS011;31595;51.418;7.572;2023-06-24T10:03:43;6.18;;;5.57;;
45887;SDS011;31595;51.418;7.572;2023-06-24T10:06:12;5.88;;;5.10;;
45887;SDS011;31595;51.418;7.572;2023-06-24T10:08:42;5.65;;;5.07;;
45887;SDS011;31595;51.418;7.572;2023-06-24T10:11:09;7.72;;;5.47;;
45887;SDS011;31595;51.418;7.572;2023-06-24T10:13:36;5.60;;;5.00;;
45887;SDS011;31595;51.418;7.572;2023-06-24T10:16:03;6.07;;;5.13;;
45887;SDS011;31595;51.418;7.572;2023-06-24T10:18:33;4.97;;;4.47;;
45887;SDS011;31595;51.418;7.572;2023-06-24T10:21:00;6.18;;;4.82;;
45887;SDS011;31595;51.418;7.572;2023-06-24T10:23:33;5.57;;;4.88;;
45887;SDS011;31595;51.418;7.572;2023-06-24T10:25:59;5.07;;;4.47;;
45887;SDS011;31595;51.418;7.572;2023-06-24T10:28:26;5.00;;;4.50;;
45887;SDS011;31595;51.418;7.572;2023-06-24T10:30:54;4.90;;;4.00;;
45887;SDS011;31595;51.418;7.572;2023-06-24T10:33:20;4.97;;;3.63;;
45887;SDS011;31595;51.418;7.572;2023-06-24T10:35:47;4.70;;;3.70;;
45887;SDS011;31595;51.418;7.572;2023-06-24T10:38:14;4.32;;;3.70;;
45887;SDS011;31595;51.418;7.572;2023-06-24T10:40:43;4.95;;;4.07;;
45887;SDS011;31595;51.418;7.572;2023-06-24T10:43:28;4.93;;;3.83;;
45887;SDS011;31595;51.418;7.572;2023-06-24T10:45:56;4.95;;;3.72;;
45887;SDS011;31595;51.418;7.572;2023-06-24T10:48:24;4.40;;;3.55;;
45887;SDS011;31595;51.418;7.572;2023-06-24T10:50:51;3.95;;;3.22;;
45887;SDS011;31595;51.418;7.572;2023-06-24T10:53:18;5.30;;;3.50;;
45887;SDS011;31595;51.418;7.572;2023-06-24T10:58:13;4.13;;;3.72;;
45887;SDS011;31595;51.418;7.572;2023-06-24T11:00:41;3.92;;;3.33;;
45887;SDS011;31595;51.418;7.572;2023-06-24T11:03:09;6.82;;;3.85;;
45887;SDS011;31595;51.418;7.572;2023-06-24T11:05:37;4.40;;;4.00;;
45887;SDS011;31595;51.418;7.572;2023-06-24T11:08:04;4.50;;;4.10;;
45887;SDS011;31595;51.418;7.572;2023-06-24T11:10:31;5.47;;;4.10;;
45887;SDS011;31595;51.418;7.572;2023-06-24T11:13:04;5.40;;;3.72;;
45887;SDS011;31595;51.418;7.572;2023-06-24T11:15:33;4.30;;;3.80;;
45887;SDS011;31595;51.418;7.572;2023-06-24T11:18:01;4.45;;;4.05;;
45887;SDS011;31595;51.418;7.572;2023-06-24T11:20:28;3.90;;;3.50;;
45887;SDS011;31595;51.418;7.572;2023-06-24T11:22:55;4.45;;;3.60;;
45887;SDS011;31595;51.418;7.572;2023-06-24T11:25:22;4.03;;;3.63;;
45887;SDS011;31595;51.418;7.572;2023-06-24T11:27:49;5.03;;;3.50;;
45887;SDS011;31595;51.418;7.572;2023-06-24T11:30:16;5.35;;;3.85;;
45887;SDS011;31595;51.418;7.572;2023-06-24T11:32:44;3.53;;;3.22;;
45887;SDS011;31595;51.418;7.572;2023-06-24T11:35:13;3.97;;;3.28;;
45887;SDS011;31595;51.418;7.572;2023-06-24T11:37:41;4.85;;;3.40;;
45887;SDS011;31595;51.418;7.572;2023-06-24T11:40:09;4.30;;;3.90;;
45887;SDS011;31595;51.418;7.572;2023-06-24T11:42:36;4.22;;;3.63;;
45887;SDS011;31595;51.418;7.572;2023-06-24T11:45:04;4.68;;;3.60;;
45887;SDS011;31595;51.418;7.572;2023-06-24T11:47:31;4.10;;;3.70;;
45887;SDS011;31595;51.418;7.572;2023-06-24T11:50:01;3.15;;;2.85;;
45887;SDS011;31595;51.418;7.572;2023-06-24T11:52:32;4.85;;;3.80;;
45887;SDS011;31595;51.418;7.572;2023-06-24T11:54:59;3.83;;;3.38;;
45887;SDS011;31595;51.418;7.572;2023-06-24T12:00:11;4.18;;;3.72;;
45887;SDS011;31595;51.418;7.572;2023-06-24T12:02:38;4.05;;;3.17;;
45887;SDS011;31595;51.418;7.572;2023-06-24T12:05:07;5.05;;;3.30;;
45887;SDS011;31595;51.418;7.572;2023-06-24T12:07:34;3.38;;;3.00;;
45887;SDS011;31595;51.418;7.572;2023-06-24T12:10:00;4.22;;;3.60;;
45887;SDS011;31595;51.418;7.572;2023-06-24T12:12:27;4.18;;;3.70;;
45887;SDS011;31595;51.418;7.572;2023-06-24T12:15:06;4.20;;;3.28;;
45887;SDS011;31595;51.418;7.572;2023-06-24T12:17:33;5.78;;;3.80;;
45887;SDS011;31595;51.418;7.572;2023-06-24T12:20:00;3.60;;;3.10;;
45887;SDS011;31595;51.418;7.572;2023-06-24T12:22:29;4.68;;;3.50;;
45887;SDS011;31595;51.418;7.572;2023-06-24T12:24:55;4.85;;;3.80;;
45887;SDS011;31595;51.418;7.572;2023-06-24T12:27:22;5.30;;;3.42;;
45887;SDS011;31595;51.418;7.572;2023-06-24T12:29:49;3.60;;;2.95;;
45887;SDS011;31595;51.418;7.572;2023-06-24T12:32:16;3.50;;;3.20;;
45887;SDS011;31595;51.418;7.572;2023-06-24T12:34:42;3.38;;;3.00;;
45887;SDS011;31595;51.418;7.572;2023-06-24T12:37:09;4.13;;;2.80;;
45887;SDS011;31595;51.418;7.572;2023-06-24T12:39:37;4.63;;;3.20;;
45887;SDS011;31595;51.418;7.572;2023-06-24T12:42:04;4.03;;;2.97;;
45887;SDS011;31595;51.418;7.572;2023-06-24T12:46:58;3.78;;;3.08;;
45887;SDS011;31595;51.418;7.572;2023-06-24T12:49:25;3.85;;;2.97;;
45887;SDS011;31595;51.418;7.572;2023-06-24T12:51:51;5.20;;;3.38;;
45887;SDS011;31595;51.418;7.572;2023-06-24T12:54:19;3.28;;;2.90;;
45887;SDS011;31595;51.418;7.572;2023-06-24T12:56:47;3.42;;;3.10;;
45887;SDS011;31595;51.418;7.572;2023-06-24T12:59:13;3.67;;;2.90;;
45887;SDS011;31595;51.418;7.572;2023-06-24T13:01:40;3.15;;;2.85;;
45887;SDS011;31595;51.418;7.572;2023-06-24T13:04:10;4.18;;;3.15;;
45887;SDS011;31595;51.418;7.572;2023-06-24T13:06:37;3.00;;;2.70;;
45887;SDS011;31595;51.418;7.572;2023-06-24T13:09:03;4.82;;;3.42;;
45887;SDS011;31595;51.418;7.572;2023-06-24T13:11:30;4.10;;;3.17;;
45887;SDS011;31595;51.418;7.572;2023-06-24T13:13:58;3.25;;;2.95;;
45887;SDS011;31595;51.418;7.572;2023-06-24T13:16:25;3.92;;;2.92;;
45887;SDS011;31595;51.418;7.572;2023-06-24T13:18:52;4.67;;;3.37;;
45887;SDS011;31595;51.418;7.572;2023-06-24T13:21:19;3.97;;;2.97;;
45887;SDS011;31595;51.418;7.572;2023-06-24T13:23:46;4.97;;;3.60;;
45887;SDS011;31595;51.418;7.572;2023-06-24T13:26:13;3.03;;;2.67;;
45887;SDS011;31595;51.418;7.572;2023-06-24T13:28:40;2.97;;;2.58;;
45887;SDS011;31595;51.418;7.572;2023-06-24T13:31:09;3.17;;;2.88;;
45887;SDS011;31595;51.418;7.572;2023-06-24T13:33:35;3.05;;;2.70;;
45887;SDS011;31595;51.418;7.572;2023-06-24T13:36:03;4.35;;;3.13;;
45887;SDS011;31595;51.418;7.572;2023-06-24T13:38:31;3.88;;;2.47;;
45887;SDS011;31595;51.418;7.572;2023-06-24T13:40:58;3.75;;;2.88;;
45887;SDS011;31595;51.418;7.572;2023-06-24T13:43:24;3.45;;;3.10;;
45887;SDS011;31595;51.418;7.572;2023-06-24T13:45:51;3.10;;;2.70;;
45887;SDS011;31595;51.418;7.572;2023-06-24T13:48:19;3.92;;;2.90;;
45887;SDS011;31595;51.418;7.572;2023-06-24T13:50:46;3.92;;;3.38;;
45887;SDS011;31595;51.418;7.572;2023-06-24T13:53:13;2.90;;;2.60;;
45887;SDS011;31595;51.418;7.572;2023-06-24T13:55:39;4.03;;;3.10;;
45887;SDS011;31595;51.418;7.572;2023-06-24T13:58:06;4.05;;;2.55;;
45887;SDS011;31595;51.418;7.572;2023-06-24T14:00:33;3.75;;;3.00;;
45887;SDS011;31595;51.418;7.572;2023-06-24T14:03:00;3.58;;;2.88;;
45887;SDS011;31595;51.418;7.572;2023-06-24T14:05:28;5.60;;;2.70;;
45887;SDS011;31595;51.418;7.572;2023-06-24T14:07:55;5.68;;;3.30;;
45887;SDS011;31595;51.418;7.572;2023-06-24T14:10:22;3.90;;;3.00;;
45887;SDS011;31595;51.418;7.572;2023-06-24T14:12:48;4.75;;;3.17;;
45887;SDS011;31595;51.418;7.572;2023-06-24T14:15:15;3.05;;;2.60;;
45887;SDS011;31595;51.418;7.572;2023-06-24T14:17:42;3.90;;;2.72;;
45887;SDS011;31595;51.418;7.572;2023-06-24T14:20:09;3.00;;;2.53;;
45887;SDS011;31595;51.418;7.572;2023-06-24T14:22:38;3.37;;;2.70;;
45887;SDS011;31595;51.418;7.572;2023-06-24T14:27:31;3.75;;;2.60;;
45887;SDS011;31595;51.418;7.572;2023-06-24T14:29:58;3.85;;;2.88;;
45887;SDS011;31595;51.418;7.572;2023-06-24T14:32:24;3.70;;;2.78;;
45887;SDS011;31595;51.418;7.572;2023-06-24T14:34:51;2.90;;;2.60;;
45887;SDS011;31595;51.418;7.572;2023-06-24T14:37:18;2.88;;;2.67;;
45887;SDS011;31595;51.418;7.572;2023-06-24T14:39:46;3.60;;;2.47;;
45887;SDS011;31595;51.418;7.572;2023-06-24T14:42:13;2.95;;;2.42;;
45887;SDS011;31595;51.418;7.572;2023-06-24T14:44:40;3.00;;;2.70;;
45887;SDS011;31595;51.418;7.572;2023-06-24T14:47:07;3.25;;;2.95;;
45887;SDS011;31595;51.418;7.572;2023-06-24T14:49:33;3.90;;;2.50;;
45887;SDS011;31595;51.418;7.572;2023-06-24T14:52:00;3.40;;;2.63;;
45887;SDS011;31595;51.418;7.572;2023-06-24T14:54:27;3.53;;;2.70;;
45887;SDS011;31595;51.418;7.572;2023-06-24T14:56:55;3.33;;;3.03;;
45887;SDS011;31595;51.418;7.572;2023-06-24T14:59:22;2.95;;;2.53;;
45887;SDS011;31595;51.418;7.572;2023-06-24T15:01:49;3.88;;;2.88;;